Accueil
METAR-TAF:

METAR-TAF

Aéroports :

Base aérienne Cameri

Novare, Italie

latitude: 45-31N, longitude: 008-40E, altitude: 178 m

Observation

Le bulletin a été fait il y a 1 heure et 21 minutes, à 10:55 UTC
Vent 11 kt de nord
Température 7°C
Humidité 93%
Pression 1015 hPa
Visibilité: 4000 m
Nuages épars à une hauteur de 1000 ft
Ciel couvert à une hauteur de 2500 ft
pluie, brume

METAR: LIMN 191055Z 35011KT 4000 RA BR SCT010 OVC025 07/06 Q1015 RMK OVC VIS MIN 4000 GRN

Heure: 13:16 (12:16 UTC)

Prévision

Le bulletin a été fait il y a 1 heure et 16 minutes, à 11:00 UTC
Prévision valable du 19 à 12 UTC au 19 à 21 UTC
Vent 15 kt de nord
Visibilité: 5000 m
Nuages épars à une hauteur de 1000 ft
Ciel couvert à une hauteur de 2500 ft
brume
Temporairement
du 19 à 12 UTC au 19 à 21 UTC
Visibilité: 3000 m
pluie, brume

TAF: LIMN 191100Z 1912/1921 35015KT 5000 BR SCT010 OVC025 TEMPO 1912/1921 3000 RA BR

Observations et prévisions météorologiques de plus de 4000 aéroports (messages METAR et TAF).

Les stations disponibles sont représentées par des disques jaunes et rouges sur la carte.

Passer la souris dessus pour voir le nom de la station.

Cliquer dessus pour voir les observations et prévisions météorologiques.

Pour changer de carte: cliquez sur les boutons verts avec une croix noire pour zoomer, sur le bouton vert avec un tiret pour effectuer un zoom arrière, ou sur les flèches vertes pour les cartes adjacentes.


METAR-TAF: